General Aviation Weather

Text Reports

Enter one or more of the following location identifiers separated by a space:

Zip Code, Four-Character ICAO or Three-Character IATA airport codes.

METAR - Aviation Routine Weather Report
KROS - Rush City, Minnesota
Updated at 3:16 PM GMT on February 07, 2016 (9:16 AM CST):
METAR KROS 071516Z AUTO 26011G19KT 240V300 10SM SCT021 OVC027 02/M01 A2955 RMK AO2 T00231012
TAF - Terminal Area Forecast
KROS - Rush City, Minnesota
Updated at 3:16 PM GMT on February 07, 2016 (9:16 AM CST):
No TAF is currently available for this location.
Decoded:
No decoded TAF is available.
PIREP - Pilot Weather Report
KROS - Rush City, Minnesota
Updated at 3:16 PM GMT on February 07, 2016 (9:16 AM CST):
No PIREP is currently available for this location.
AIRMET - Airmens Meteorological Information
KROS - Rush City, Minnesota
Updated at 3:16 PM GMT on February 07, 2016 (9:16 AM CST):
No AIRMET is currently available for this location.
SIGMET - Significant Meteorological Information
KROS - Rush City, Minnesota
Updated at 3:16 PM GMT on February 07, 2016 (9:16 AM CST):
No SIGMET is currently available for this location.
NOTAM - Notice to Airmen
KROS - Rush City, Minnesota
Updated at 3:16 PM GMT on February 07, 2016 (9:16 AM CST):
No NOTAM is currently available for this location.
Forecast Area
KROS - Rush City, Minnesota
Updated at 3:16 PM GMT on February 07, 2016 (9:16 AM CST):
No NOTAM is currently available for this location.
Aviation Weather Maps